createdAt,value
2023-02-24T00:00:32.009Z,1014.42
2023-02-24T00:01:32.194Z,1014.39
2023-02-24T00:02:32.005Z,1014.40
2023-02-24T00:03:31.941Z,1014.38
2023-02-24T00:04:31.913Z,1014.36
2023-02-24T00:05:31.925Z,1014.34
2023-02-24T00:06:31.908Z,1014.38
2023-02-24T00:07:31.860Z,1014.36
2023-02-24T00:08:31.866Z,1014.36
2023-02-24T00:09:31.860Z,1014.33
2023-02-24T00:10:31.837Z,1014.30
2023-02-24T00:11:31.808Z,1014.26
2023-02-24T00:12:31.860Z,1014.25
2023-02-24T00:13:31.804Z,1014.25
2023-02-24T00:14:31.818Z,1014.22
2023-02-24T00:15:31.767Z,1014.19
2023-02-24T00:16:31.796Z,1014.17
2023-02-24T00:17:31.830Z,1014.12
2023-02-24T00:18:31.762Z,1014.11
2023-02-24T00:19:31.766Z,1014.11
2023-02-24T00:20:31.693Z,1014.08
2023-02-24T00:21:31.691Z,1014.06
2023-02-24T00:22:31.704Z,1014.06
2023-02-24T00:23:32.015Z,1014.09
2023-02-24T00:24:31.708Z,1014.06
2023-02-24T00:25:31.642Z,1014.07
2023-02-24T00:26:31.665Z,1014.07
2023-02-24T00:27:31.649Z,1014.07
2023-02-24T00:28:33.062Z,1014.01
2023-02-24T00:29:31.678Z,1014.02
2023-02-24T00:30:31.586Z,1013.98
2023-02-24T00:31:40.387Z,1013.98
2023-02-24T00:32:39.292Z,1014.00
2023-02-24T00:33:39.095Z,1013.97
2023-02-24T00:34:31.556Z,1013.94
2023-02-24T00:35:39.028Z,1013.95
2023-02-24T00:36:38.999Z,1013.94
2023-02-24T00:37:39.042Z,1013.94
2023-02-24T00:38:31.450Z,1013.93
2023-02-24T00:39:38.511Z,1013.94
2023-02-24T00:40:31.449Z,1014.00
2023-02-24T00:41:31.420Z,1013.97
2023-02-24T00:42:31.403Z,1013.98
2023-02-24T00:43:31.417Z,1013.96
2023-02-24T00:44:31.439Z,1013.98
2023-02-24T00:45:31.386Z,1013.99
2023-02-24T00:46:31.384Z,1013.98
2023-02-24T00:47:31.340Z,1013.95
2023-02-24T00:48:32.889Z,1013.92
2023-02-24T00:49:31.343Z,1013.94
2023-02-24T00:50:31.357Z,1013.88
2023-02-24T00:51:31.308Z,1013.89
2023-02-24T00:52:31.286Z,1013.84
2023-02-24T00:53:31.269Z,1013.85
2023-02-24T00:54:31.283Z,1013.81
2023-02-24T00:55:31.284Z,1013.87
2023-02-24T00:56:31.231Z,1013.81
2023-02-24T00:57:31.235Z,1013.83
2023-02-24T00:58:31.204Z,1013.86
2023-02-24T00:59:33.184Z,1013.84
2023-02-24T01:00:31.184Z,1013.80
2023-02-24T01:01:31.225Z,1013.82
2023-02-24T01:02:31.148Z,1013.79
2023-02-24T01:03:31.200Z,1013.77
2023-02-24T01:04:31.114Z,1013.79
2023-02-24T01:05:31.160Z,1013.77
2023-02-24T01:06:31.115Z,1013.75
2023-02-24T01:07:31.098Z,1013.79
2023-02-24T01:08:31.078Z,1013.77
2023-02-24T01:09:31.072Z,1013.78
2023-02-24T01:10:31.302Z,1013.78
2023-02-24T01:11:31.061Z,1013.77
2023-02-24T01:12:31.015Z,1013.80
2023-02-24T01:13:31.055Z,1013.79
2023-02-24T01:14:30.975Z,1013.77
2023-02-24T01:15:30.984Z,1013.77
2023-02-24T01:16:30.952Z,1013.75
2023-02-24T01:17:30.944Z,1013.78
2023-02-24T01:18:30.929Z,1013.76
2023-02-24T01:19:30.987Z,1013.74
2023-02-24T01:20:30.921Z,1013.69
2023-02-24T01:21:30.882Z,1013.74
2023-02-24T01:22:30.863Z,1013.68
2023-02-24T01:23:30.877Z,1013.71
2023-02-24T01:24:30.870Z,1013.71
2023-02-24T01:25:30.834Z,1013.70
2023-02-24T01:26:30.864Z,1013.73
2023-02-24T01:27:30.804Z,1013.74
2023-02-24T01:28:30.798Z,1013.69
2023-02-24T01:29:30.856Z,1013.72
2023-02-24T01:30:30.768Z,1013.73
2023-02-24T01:31:30.974Z,1013.70
2023-02-24T01:32:30.966Z,1013.70
2023-02-24T01:33:30.765Z,1013.68
2023-02-24T01:34:30.710Z,1013.64
2023-02-24T01:35:30.707Z,1013.66
2023-02-24T01:36:30.686Z,1013.64
2023-02-24T01:37:30.692Z,1013.69
2023-02-24T01:38:30.667Z,1013.61
2023-02-24T01:39:30.663Z,1013.62
2023-02-24T01:40:30.656Z,1013.59
2023-02-24T01:41:30.629Z,1013.51
2023-02-24T01:42:30.604Z,1013.53
2023-02-24T01:43:30.634Z,1013.50
2023-02-24T01:44:30.579Z,1013.49
2023-02-24T01:45:30.611Z,1013.44
2023-02-24T01:46:30.626Z,1013.46
2023-02-24T01:47:30.591Z,1013.45
2023-02-24T01:48:30.561Z,1013.45
2023-02-24T01:49:30.536Z,1013.45
2023-02-24T01:50:30.515Z,1013.44
2023-02-24T01:51:30.491Z,1013.41
2023-02-24T01:52:30.565Z,1013.43
2023-02-24T01:53:30.482Z,1013.39
2023-02-24T01:54:30.451Z,1013.38
2023-02-24T01:55:30.494Z,1013.37
2023-02-24T01:56:30.430Z,1013.43
2023-02-24T01:57:30.405Z,1013.41
2023-02-24T01:58:30.418Z,1013.35
2023-02-24T01:59:30.383Z,1013.34
2023-02-24T02:00:30.399Z,1013.30
2023-02-24T02:01:30.426Z,1013.27
2023-02-24T02:02:30.377Z,1013.27
2023-02-24T02:03:30.358Z,1013.27
2023-02-24T02:04:30.326Z,1013.26
2023-02-24T02:05:30.341Z,1013.22
2023-02-24T02:06:30.288Z,1013.25
2023-02-24T02:07:30.301Z,1013.22
2023-02-24T02:08:30.320Z,1013.22
2023-02-24T02:09:30.291Z,1013.14
2023-02-24T02:10:30.351Z,1013.10
2023-02-24T02:11:30.243Z,1013.10
2023-02-24T02:12:31.581Z,1013.04
2023-02-24T02:13:30.266Z,1013.01
2023-02-24T02:14:30.224Z,1013.02
2023-02-24T02:15:30.182Z,1013.00
2023-02-24T02:16:30.238Z,1013.00
2023-02-24T02:17:30.187Z,1012.95
2023-02-24T02:18:30.167Z,1012.91
2023-02-24T02:19:30.157Z,1012.90
2023-02-24T02:20:30.112Z,1012.87
2023-02-24T02:21:30.092Z,1012.86
2023-02-24T02:22:30.085Z,1012.82
2023-02-24T02:23:30.099Z,1012.83
2023-02-24T02:24:30.060Z,1012.80
2023-02-24T02:25:30.038Z,1012.75
2023-02-24T02:26:30.025Z,1012.72
2023-02-24T02:27:30.011Z,1012.73
2023-02-24T02:28:30.054Z,1012.68
2023-02-24T02:29:30.013Z,1012.65
2023-02-24T02:30:29.982Z,1012.63
2023-02-24T02:31:30.008Z,1012.59
2023-02-24T02:32:30.126Z,1012.61
2023-02-24T02:33:29.959Z,1012.55
2023-02-24T02:34:29.945Z,1012.56
2023-02-24T02:35:29.913Z,1012.52
2023-02-24T02:36:29.923Z,1012.49
2023-02-24T02:37:29.945Z,1012.49
2023-02-24T02:38:29.872Z,1012.49
2023-02-24T02:39:29.857Z,1012.47
2023-02-24T02:40:29.854Z,1012.42
2023-02-24T02:41:29.826Z,1012.42
2023-02-24T02:42:29.812Z,1012.41
2023-02-24T02:43:29.848Z,1012.39
2023-02-24T02:44:29.804Z,1012.37
2023-02-24T02:45:29.852Z,1012.37
2023-02-24T02:46:29.751Z,1012.36
2023-02-24T02:47:29.738Z,1012.33
2023-02-24T02:48:29.748Z,1012.36
2023-02-24T02:49:29.718Z,1012.32
2023-02-24T02:50:29.736Z,1012.33
2023-02-24T02:51:29.718Z,1012.28
2023-02-24T02:52:29.738Z,1012.28
2023-02-24T02:53:29.684Z,1012.27
2023-02-24T02:54:29.665Z,1012.25
2023-02-24T02:55:29.690Z,1012.25
2023-02-24T02:56:29.626Z,1012.22
2023-02-24T02:57:29.771Z,1012.23
2023-02-24T02:58:29.606Z,1012.24
2023-02-24T02:59:29.605Z,1012.24
2023-02-24T03:00:29.572Z,1012.24
2023-02-24T03:01:29.676Z,1012.25
2023-02-24T03:02:29.586Z,1012.23
2023-02-24T03:03:29.538Z,1012.23
2023-02-24T03:04:29.534Z,1012.22
2023-02-24T03:05:29.552Z,1012.21
2023-02-24T03:06:29.518Z,1012.20
2023-02-24T03:07:29.478Z,1012.19
2023-02-24T03:08:29.475Z,1012.19
2023-02-24T03:09:29.467Z,1012.21
2023-02-24T03:10:29.484Z,1012.19
2023-02-24T03:11:29.468Z,1012.19
2023-02-24T03:12:29.427Z,1012.14
2023-02-24T03:13:29.394Z,1012.17
2023-02-24T03:14:29.386Z,1012.16
2023-02-24T03:15:29.392Z,1012.14
2023-02-24T03:16:29.387Z,1012.18
2023-02-24T03:17:29.355Z,1012.15
2023-02-24T03:18:29.381Z,1012.13
2023-02-24T03:19:29.308Z,1012.11
2023-02-24T03:20:29.343Z,1012.16
2023-02-24T03:21:29.296Z,1012.13
2023-02-24T03:22:29.285Z,1012.12
2023-02-24T03:23:29.270Z,1012.12
2023-02-24T03:24:29.237Z,1012.09
2023-02-24T03:25:29.242Z,1012.08
2023-02-24T03:26:29.230Z,1012.12
2023-02-24T03:27:29.226Z,1012.12
2023-02-24T03:28:29.192Z,1012.07
2023-02-24T03:29:29.193Z,1012.03
2023-02-24T03:30:30.584Z,1012.01
2023-02-24T03:31:29.204Z,1012.06
2023-02-24T03:32:30.772Z,1012.02
2023-02-24T03:33:29.146Z,1012.05
2023-02-24T03:34:29.141Z,1011.99
2023-02-24T03:35:29.100Z,1011.95
2023-02-24T03:36:29.086Z,1011.97
2023-02-24T03:37:29.072Z,1011.94
2023-02-24T03:38:29.053Z,1011.97
2023-02-24T03:39:29.054Z,1011.89
2023-02-24T03:40:29.064Z,1011.90
2023-02-24T03:41:29.035Z,1011.88
2023-02-24T03:42:28.998Z,1011.89
2023-02-24T03:43:29.969Z,1011.84
2023-02-24T03:44:28.996Z,1011.88
2023-02-24T03:45:29.104Z,1011.86
2023-02-24T03:46:29.014Z,1011.85
2023-02-24T03:47:28.951Z,1011.84
2023-02-24T03:48:28.931Z,1011.80
2023-02-24T03:49:28.953Z,1011.76
2023-02-24T03:50:28.924Z,1011.77
2023-02-24T03:51:28.927Z,1011.75
2023-02-24T03:52:28.901Z,1011.77
2023-02-24T03:53:28.940Z,1011.78
2023-02-24T03:54:28.876Z,1011.76
2023-02-24T03:55:28.846Z,1011.80
2023-02-24T03:56:28.839Z,1011.76
2023-02-24T03:57:28.833Z,1011.83
2023-02-24T03:58:28.833Z,1011.77
2023-02-24T03:59:28.833Z,1011.82
2023-02-24T04:00:28.761Z,1011.84
2023-02-24T04:01:28.761Z,1011.88
2023-02-24T04:02:28.784Z,1011.85
2023-02-24T04:03:28.734Z,1011.83
2023-02-24T04:04:28.723Z,1011.76
2023-02-24T04:05:28.706Z,1011.79
2023-02-24T04:06:28.688Z,1011.76
2023-02-24T04:07:31.877Z,1011.80
2023-02-24T04:08:28.707Z,1011.83
2023-02-24T04:09:28.668Z,1011.82
2023-02-24T04:10:28.635Z,1011.83
2023-02-24T04:11:28.620Z,1011.85
2023-02-24T04:12:28.694Z,1011.82
2023-02-24T04:13:28.617Z,1011.85
2023-02-24T04:14:28.573Z,1011.83
2023-02-24T04:15:28.578Z,1011.77
2023-02-24T04:16:28.553Z,1011.76
2023-02-24T04:17:28.553Z,1011.79
2023-02-24T04:18:28.549Z,1011.77
2023-02-24T04:19:28.525Z,1011.73
2023-02-24T04:20:28.514Z,1011.76
2023-02-24T04:21:28.489Z,1011.72
2023-02-24T04:22:28.471Z,1011.74
2023-02-24T04:23:28.477Z,1011.71
2023-02-24T04:24:28.544Z,1011.66
2023-02-24T04:25:28.433Z,1011.67
2023-02-24T04:26:28.428Z,1011.71
2023-02-24T04:27:28.469Z,1011.67
2023-02-24T04:28:28.399Z,1011.71
2023-02-24T04:29:28.396Z,1011.67
2023-02-24T04:30:28.380Z,1011.63
2023-02-24T04:31:28.496Z,1011.55
2023-02-24T04:32:28.425Z,1011.52
2023-02-24T04:33:28.355Z,1011.52
2023-02-24T04:34:28.307Z,1011.53
2023-02-24T04:35:28.312Z,1011.51
2023-02-24T04:36:28.338Z,1011.51
2023-02-24T04:37:28.269Z,1011.53
2023-02-24T04:38:28.358Z,1011.52
2023-02-24T04:39:28.258Z,1011.54
2023-02-24T04:40:28.257Z,1011.51
2023-02-24T04:41:28.220Z,1011.54
2023-02-24T04:42:28.245Z,1011.50
2023-02-24T04:43:28.198Z,1011.47
2023-02-24T04:44:28.237Z,1011.46
2023-02-24T04:45:28.224Z,1011.44
2023-02-24T04:46:28.228Z,1011.43
2023-02-24T04:47:28.148Z,1011.47
2023-02-24T04:48:28.143Z,1011.44
2023-02-24T04:49:28.113Z,1011.42
2023-02-24T04:50:28.330Z,1011.46
2023-02-24T04:51:29.410Z,1011.44
2023-02-24T04:52:28.110Z,1011.47
2023-02-24T04:53:28.097Z,1011.43
2023-02-24T04:54:28.059Z,1011.48
2023-02-24T04:55:28.051Z,1011.45
2023-02-24T04:56:28.043Z,1011.43
2023-02-24T04:57:28.011Z,1011.43
2023-02-24T04:58:28.077Z,1011.40
2023-02-24T04:59:28.024Z,1011.40
2023-02-24T05:00:28.002Z,1011.36
2023-02-24T05:01:27.962Z,1011.35
2023-02-24T05:02:27.978Z,1011.35
2023-02-24T05:03:28.093Z,1011.33
2023-02-24T05:04:27.970Z,1011.37
2023-02-24T05:05:27.912Z,1011.36
2023-02-24T05:06:27.907Z,1011.38
2023-02-24T05:07:27.935Z,1011.32
2023-02-24T05:08:27.864Z,1011.30
2023-02-24T05:09:27.860Z,1011.25
2023-02-24T05:10:27.954Z,1011.23
2023-02-24T05:11:27.830Z,1011.23
2023-02-24T05:12:27.838Z,1011.21
2023-02-24T05:13:27.804Z,1011.24
2023-02-24T05:14:27.783Z,1011.23
2023-02-24T05:15:27.770Z,1011.22
2023-02-24T05:16:28.515Z,1011.18
2023-02-24T05:17:27.752Z,1011.16
2023-02-24T05:18:36.546Z,1011.16
2023-02-24T05:19:35.231Z,1011.16
2023-02-24T05:20:36.404Z,1011.15
2023-02-24T05:21:35.212Z,1011.10
2023-02-24T05:22:35.174Z,1011.09
2023-02-24T05:23:34.681Z,1011.09
2023-02-24T05:24:35.522Z,1011.05
2023-02-24T05:25:28.643Z,1011.11
2023-02-24T05:26:27.639Z,1011.07
2023-02-24T05:27:27.636Z,1011.08
2023-02-24T05:28:27.609Z,1011.05
2023-02-24T05:29:27.697Z,1011.03
2023-02-24T05:30:27.703Z,1011.06
2023-02-24T05:31:27.610Z,1011.03
2023-02-24T05:32:27.827Z,1011.01
2023-02-24T05:33:27.540Z,1010.95
2023-02-24T05:34:27.525Z,1010.95
2023-02-24T05:35:27.505Z,1010.93
2023-02-24T05:36:27.513Z,1010.90
2023-02-24T05:37:27.477Z,1010.89
2023-02-24T05:38:27.520Z,1010.92
2023-02-24T05:39:27.481Z,1010.91
2023-02-24T05:40:27.452Z,1010.89
2023-02-24T05:41:27.411Z,1010.93
2023-02-24T05:42:27.405Z,1010.91
2023-02-24T05:43:27.425Z,1010.91
2023-02-24T05:44:27.401Z,1010.84
2023-02-24T05:45:27.475Z,1010.83
2023-02-24T05:46:27.543Z,1010.84
2023-02-24T05:47:27.360Z,1010.82
2023-02-24T05:48:27.332Z,1010.78
2023-02-24T05:49:27.335Z,1010.80
2023-02-24T05:50:27.302Z,1010.78
2023-02-24T05:51:27.348Z,1010.71
2023-02-24T05:52:27.266Z,1010.70
2023-02-24T05:53:27.320Z,1010.68
2023-02-24T05:54:27.239Z,1010.67
2023-02-24T05:55:27.396Z,1010.68
2023-02-24T05:56:27.218Z,1010.66
2023-02-24T05:57:27.403Z,1010.63
2023-02-24T05:58:27.271Z,1010.65
2023-02-24T05:59:27.186Z,1010.61
2023-02-24T06:00:27.178Z,1010.64
2023-02-24T06:01:27.155Z,1010.63
2023-02-24T06:02:28.017Z,1010.66
2023-02-24T06:03:27.590Z,1010.61
2023-02-24T06:04:27.482Z,1010.58
2023-02-24T06:05:28.880Z,1010.61
2023-02-24T06:06:27.169Z,1010.56
2023-02-24T06:07:27.095Z,1010.54
2023-02-24T06:08:27.104Z,1010.54
2023-02-24T06:09:27.075Z,1010.54
2023-02-24T06:10:27.067Z,1010.56
2023-02-24T06:11:27.055Z,1010.55
2023-02-24T06:12:27.049Z,1010.51
2023-02-24T06:13:26.988Z,1010.46
2023-02-24T06:14:27.022Z,1010.47
2023-02-24T06:15:26.981Z,1010.44
2023-02-24T06:16:27.025Z,1010.43
2023-02-24T06:17:26.984Z,1010.40
2023-02-24T06:18:26.921Z,1010.41
2023-02-24T06:19:26.924Z,1010.35
2023-02-24T06:20:26.915Z,1010.35
2023-02-24T06:21:26.902Z,1010.30
2023-02-24T06:22:26.869Z,1010.30
2023-02-24T06:23:26.859Z,1010.30
2023-02-24T06:24:26.855Z,1010.31
2023-02-24T06:25:26.863Z,1010.30
2023-02-24T06:26:26.829Z,1010.28
2023-02-24T06:27:26.824Z,1010.28
2023-02-24T06:28:26.829Z,1010.29
2023-02-24T06:29:26.869Z,1010.29
2023-02-24T06:30:26.896Z,1010.26
2023-02-24T06:31:26.806Z,1010.27
2023-02-24T06:32:26.910Z,1010.24
2023-02-24T06:33:26.836Z,1010.20
2023-02-24T06:34:26.718Z,1010.18
2023-02-24T06:35:27.205Z,1010.19
2023-02-24T06:36:26.681Z,1010.13
2023-02-24T06:37:26.683Z,1010.12
2023-02-24T06:38:26.678Z,1010.11
2023-02-24T06:39:26.692Z,1010.11
2023-02-24T06:40:26.662Z,1010.10
2023-02-24T06:41:26.764Z,1010.09
2023-02-24T06:42:26.625Z,1010.11
2023-02-24T06:43:26.651Z,1010.10
2023-02-24T06:44:26.628Z,1010.08
2023-02-24T06:45:26.621Z,1010.04
2023-02-24T06:46:26.624Z,1010.08
2023-02-24T06:47:26.607Z,1010.11
2023-02-24T06:48:26.553Z,1010.10
2023-02-24T06:49:26.503Z,1010.09
2023-02-24T06:50:26.522Z,1010.08
2023-02-24T06:51:26.518Z,1010.08
2023-02-24T06:52:26.509Z,1010.09
2023-02-24T06:53:26.476Z,1010.07
2023-02-24T06:54:26.483Z,1010.09
2023-02-24T06:55:26.466Z,1010.08
2023-02-24T06:56:26.426Z,1010.11
2023-02-24T06:57:26.407Z,1010.07
2023-02-24T06:58:26.472Z,1010.11
2023-02-24T06:59:26.428Z,1010.11
2023-02-24T07:00:26.361Z,1010.06
2023-02-24T07:01:26.583Z,1010.11
2023-02-24T07:02:26.333Z,1010.08
2023-02-24T07:03:26.444Z,1010.05
2023-02-24T07:04:28.421Z,1010.08
2023-02-24T07:05:26.415Z,1010.05
2023-02-24T07:06:35.117Z,1010.06
2023-02-24T07:07:26.259Z,1010.08
2023-02-24T07:08:26.264Z,1010.08
2023-02-24T07:09:26.246Z,1010.02
2023-02-24T07:10:26.280Z,1010.03
2023-02-24T07:11:26.246Z,1010.00
2023-02-24T07:12:26.202Z,1009.99
2023-02-24T07:13:26.238Z,1010.03
2023-02-24T07:14:26.167Z,1009.98
2023-02-24T07:15:26.157Z,1009.97
2023-02-24T07:16:26.228Z,1009.99
2023-02-24T07:17:26.158Z,1009.97
2023-02-24T07:18:26.147Z,1009.98
2023-02-24T07:19:26.121Z,1010.02
2023-02-24T07:20:26.127Z,1009.96
2023-02-24T07:21:26.148Z,1009.94
2023-02-24T07:22:26.080Z,1009.97
2023-02-24T07:23:26.080Z,1009.89
2023-02-24T07:24:26.115Z,1009.84
2023-02-24T07:25:26.037Z,1009.87
2023-02-24T07:26:26.032Z,1009.78
2023-02-24T07:27:26.040Z,1009.77
2023-02-24T07:28:26.012Z,1009.78
2023-02-24T07:29:25.995Z,1009.80
2023-02-24T07:30:26.057Z,1009.78
2023-02-24T07:31:26.422Z,1009.73
2023-02-24T07:32:26.017Z,1009.70
2023-02-24T07:33:25.943Z,1009.72
2023-02-24T07:34:25.953Z,1009.71
2023-02-24T07:35:25.920Z,1009.66
2023-02-24T07:36:25.877Z,1009.61
2023-02-24T07:37:27.077Z,1009.61
2023-02-24T07:38:28.233Z,1009.55
2023-02-24T07:39:25.874Z,1009.54
2023-02-24T07:40:25.994Z,1009.55
2023-02-24T07:41:25.854Z,1009.51
2023-02-24T07:42:25.808Z,1009.50
2023-02-24T07:43:25.782Z,1009.47
2023-02-24T07:44:25.824Z,1009.40
2023-02-24T07:45:25.833Z,1009.42
2023-02-24T07:46:25.834Z,1009.45
2023-02-24T07:47:25.729Z,1009.44
2023-02-24T07:48:25.789Z,1009.50
2023-02-24T07:49:25.723Z,1009.48
2023-02-24T07:50:25.691Z,1009.48
2023-02-24T07:51:25.732Z,1009.48
2023-02-24T07:52:25.678Z,1009.51
2023-02-24T07:53:25.658Z,1009.48
2023-02-24T07:54:25.652Z,1009.44
2023-02-24T07:55:25.815Z,1009.44
2023-02-24T07:56:25.613Z,1009.34
2023-02-24T07:57:25.641Z,1009.32
2023-02-24T07:58:25.644Z,1009.29
2023-02-24T07:59:25.648Z,1009.27
2023-02-24T08:00:25.589Z,1009.25
2023-02-24T08:01:25.541Z,1009.27
2023-02-24T08:02:25.567Z,1009.27
2023-02-24T08:03:25.512Z,1009.29
2023-02-24T08:04:25.501Z,1009.25
2023-02-24T08:05:25.534Z,1009.22
2023-02-24T08:06:25.482Z,1009.19
2023-02-24T08:07:25.762Z,1009.17
2023-02-24T08:08:25.462Z,1009.17
2023-02-24T08:09:25.442Z,1009.19
2023-02-24T08:10:25.529Z,1009.12
2023-02-24T08:11:25.454Z,1009.14
2023-02-24T08:12:25.401Z,1009.12
2023-02-24T08:13:25.512Z,1009.11
2023-02-24T08:14:25.370Z,1009.05
2023-02-24T08:15:25.354Z,1009.07
2023-02-24T08:16:25.353Z,1009.13
2023-02-24T08:17:25.373Z,1009.01
2023-02-24T08:18:25.313Z,1008.98
2023-02-24T08:19:25.380Z,1008.95
2023-02-24T08:20:25.306Z,1008.90
2023-02-24T08:21:25.297Z,1008.96
2023-02-24T08:22:25.279Z,1008.96
2023-02-24T08:23:25.308Z,1008.95
2023-02-24T08:24:25.531Z,1008.95
2023-02-24T08:25:25.290Z,1008.94
2023-02-24T08:26:34.489Z,1008.95
2023-02-24T08:27:25.204Z,1008.91
2023-02-24T08:28:25.193Z,1008.92
2023-02-24T08:29:25.169Z,1008.93
2023-02-24T08:30:25.221Z,1009.00
2023-02-24T08:31:25.760Z,1008.95
2023-02-24T08:32:25.253Z,1008.93
2023-02-24T08:33:25.124Z,1008.89
2023-02-24T08:34:25.117Z,1008.89
2023-02-24T08:35:25.102Z,1008.85
2023-02-24T08:36:25.109Z,1008.83
2023-02-24T08:37:25.059Z,1008.91
2023-02-24T08:38:26.552Z,1008.88
2023-02-24T08:39:25.081Z,1008.90
2023-02-24T08:40:25.106Z,1008.88
2023-02-24T08:41:25.217Z,1008.83
2023-02-24T08:42:25.009Z,1008.81
2023-02-24T08:43:24.998Z,1008.75
2023-02-24T08:44:25.035Z,1008.77
2023-02-24T08:45:24.960Z,1008.74
2023-02-24T08:46:24.994Z,1008.77
2023-02-24T08:47:24.971Z,1008.72
2023-02-24T08:48:24.946Z,1008.71
2023-02-24T08:49:24.929Z,1008.66
2023-02-24T08:50:24.925Z,1008.68
2023-02-24T08:51:24.898Z,1008.67
2023-02-24T08:52:24.895Z,1008.66
2023-02-24T08:53:24.880Z,1008.66
2023-02-24T08:54:24.862Z,1008.61
2023-02-24T08:55:24.868Z,1008.66
2023-02-24T08:56:24.851Z,1008.56
2023-02-24T08:57:24.808Z,1008.62
2023-02-24T08:58:24.807Z,1008.58
2023-02-24T08:59:24.800Z,1008.56
2023-02-24T09:00:24.772Z,1008.60
2023-02-24T09:01:25.202Z,1008.54
2023-02-24T09:02:24.756Z,1008.54
2023-02-24T09:03:24.718Z,1008.52
2023-02-24T09:04:24.800Z,1008.52
2023-02-24T09:05:24.731Z,1008.49
2023-02-24T09:06:24.705Z,1008.49
2023-02-24T09:07:24.707Z,1008.48
2023-02-24T09:08:24.690Z,1008.49
2023-02-24T09:09:24.661Z,1008.46
2023-02-24T09:10:24.632Z,1008.45
2023-02-24T09:11:24.681Z,1008.40
2023-02-24T09:12:24.775Z,1008.39
2023-02-24T09:13:24.614Z,1008.39
2023-02-24T09:14:27.723Z,1008.35
2023-02-24T09:15:24.596Z,1008.38
2023-02-24T09:16:24.707Z,1008.39
2023-02-24T09:17:24.631Z,1008.36
2023-02-24T09:18:24.565Z,1008.32
2023-02-24T09:19:24.514Z,1008.31
2023-02-24T09:20:24.526Z,1008.36
2023-02-24T09:21:24.495Z,1008.34
2023-02-24T09:22:24.497Z,1008.35
2023-02-24T09:23:24.484Z,1008.32
2023-02-24T09:24:24.474Z,1008.30
2023-02-24T09:25:24.478Z,1008.26
2023-02-24T09:26:24.452Z,1008.26
2023-02-24T09:27:24.446Z,1008.22
2023-02-24T09:28:24.496Z,1008.22
2023-02-24T09:29:24.380Z,1008.21
2023-02-24T09:30:24.385Z,1008.16
2023-02-24T09:31:25.027Z,1008.18
2023-02-24T09:32:24.513Z,1008.18
2023-02-24T09:33:24.396Z,1008.15
2023-02-24T09:34:24.356Z,1008.19
2023-02-24T09:35:24.314Z,1008.14
2023-02-24T09:36:24.334Z,1008.24
2023-02-24T09:37:24.296Z,1008.18
2023-02-24T09:38:24.303Z,1008.09
2023-02-24T09:39:24.250Z,1008.06
2023-02-24T09:40:24.284Z,1008.03
2023-02-24T09:41:24.234Z,1007.95
2023-02-24T09:42:24.215Z,1008.01
2023-02-24T09:43:24.219Z,1007.94
2023-02-24T09:44:24.190Z,1007.94
2023-02-24T09:45:24.273Z,1008.01
2023-02-24T09:46:24.314Z,1007.98
2023-02-24T09:47:24.204Z,1007.90
2023-02-24T09:48:24.149Z,1007.87
2023-02-24T09:49:24.170Z,1007.90
2023-02-24T09:50:51.609Z,1007.90
2023-02-24T09:51:25.103Z,1007.86
2023-02-24T09:52:24.084Z,1007.87
2023-02-24T09:53:24.106Z,1007.79
2023-02-24T09:54:24.060Z,1007.77
2023-02-24T09:55:24.050Z,1007.77
2023-02-24T09:56:24.049Z,1007.77
2023-02-24T09:57:24.093Z,1007.79
2023-02-24T09:58:29.342Z,1007.83
2023-02-24T09:59:25.048Z,1007.81
2023-02-24T10:00:24.000Z,1007.78
2023-02-24T10:01:24.308Z,1007.70
2023-02-24T10:02:24.003Z,1007.78
2023-02-24T10:03:23.971Z,1007.72
2023-02-24T10:04:23.960Z,1007.69
2023-02-24T10:05:23.925Z,1007.69
2023-02-24T10:06:23.924Z,1007.66
2023-02-24T10:07:23.888Z,1007.56
2023-02-24T10:08:23.876Z,1007.61
2023-02-24T10:09:23.898Z,1007.66
2023-02-24T10:10:23.874Z,1007.59
2023-02-24T10:11:23.984Z,1007.53
2023-02-24T10:12:23.840Z,1007.49
2023-02-24T10:13:23.849Z,1007.48
2023-02-24T10:14:25.586Z,1007.43
2023-02-24T10:15:23.797Z,1007.46
2023-02-24T10:16:23.897Z,1007.35
2023-02-24T10:17:23.800Z,1007.43
2023-02-24T10:18:23.760Z,1007.41
2023-02-24T10:19:23.752Z,1007.41
2023-02-24T10:20:23.723Z,1007.45
2023-02-24T10:21:23.723Z,1007.42
2023-02-24T10:22:23.708Z,1007.41
2023-02-24T10:23:23.716Z,1007.38
2023-02-24T10:24:23.681Z,1007.42
2023-02-24T10:25:23.693Z,1007.39
2023-02-24T10:26:23.668Z,1007.38
2023-02-24T10:27:23.680Z,1007.38
2023-02-24T10:28:23.772Z,1007.35
2023-02-24T10:29:23.618Z,1007.36
2023-02-24T10:30:23.609Z,1007.30
2023-02-24T10:31:24.071Z,1007.26
2023-02-24T10:32:24.194Z,1007.28
2023-02-24T10:33:23.565Z,1007.25
2023-02-24T10:34:24.146Z,1007.28
2023-02-24T10:35:23.532Z,1007.17
2023-02-24T10:36:23.582Z,1007.20
2023-02-24T10:37:28.602Z,1007.18
2023-02-24T10:38:24.518Z,1007.22
2023-02-24T10:39:23.485Z,1007.22
2023-02-24T10:40:23.462Z,1007.23
2023-02-24T10:41:23.623Z,1007.19
2023-02-24T10:42:23.440Z,1007.17
2023-02-24T10:43:23.492Z,1007.24
2023-02-24T10:44:23.416Z,1007.24
2023-02-24T10:45:23.408Z,1007.20
2023-02-24T10:46:34.993Z,1007.23
2023-02-24T10:47:24.367Z,1007.19
2023-02-24T10:48:32.315Z,1007.19
2023-02-24T10:49:24.368Z,1007.15
2023-02-24T10:50:23.343Z,1007.16
2023-02-24T10:51:23.567Z,1007.18
2023-02-24T10:52:23.301Z,1007.21
2023-02-24T10:53:23.300Z,1007.17
2023-02-24T10:54:23.280Z,1007.14
2023-02-24T10:55:23.296Z,1007.06
2023-02-24T10:56:23.554Z,1007.06
2023-02-24T10:57:23.261Z,1007.14
2023-02-24T10:58:23.228Z,1007.07
2023-02-24T10:59:23.385Z,1007.06
2023-02-24T11:00:23.204Z,1006.98
2023-02-24T11:01:23.492Z,1007.00
2023-02-24T11:02:23.223Z,1007.01
2023-02-24T11:03:32.511Z,1006.99
2023-02-24T11:04:24.137Z,1006.96
2023-02-24T11:05:23.139Z,1006.98
2023-02-24T11:06:23.140Z,1006.88
2023-02-24T11:07:23.135Z,1006.90
2023-02-24T11:08:23.090Z,1006.86
2023-02-24T11:09:23.080Z,1006.85
2023-02-24T11:10:23.065Z,1006.84
2023-02-24T11:11:23.426Z,1006.83
2023-02-24T11:12:23.025Z,1006.77
2023-02-24T11:13:23.033Z,1006.80
2023-02-24T11:14:23.000Z,1006.82
2023-02-24T11:15:22.990Z,1006.76
2023-02-24T11:16:23.124Z,1006.77
2023-02-24T11:17:23.001Z,1006.78
2023-02-24T11:18:22.972Z,1006.74
2023-02-24T11:19:23.030Z,1006.73
2023-02-24T11:20:22.945Z,1006.72
2023-02-24T11:21:23.351Z,1006.75
2023-02-24T11:22:22.899Z,1006.72
2023-02-24T11:23:22.924Z,1006.64
2023-02-24T11:24:22.898Z,1006.68
2023-02-24T11:25:22.866Z,1006.60
2023-02-24T11:26:22.839Z,1006.64
2023-02-24T11:27:22.879Z,1006.54
2023-02-24T11:28:22.818Z,1006.59
2023-02-24T11:29:22.844Z,1006.51
2023-02-24T11:30:22.872Z,1006.54
2023-02-24T11:31:23.328Z,1006.52
2023-02-24T11:32:23.179Z,1006.43
2023-02-24T11:33:22.769Z,1006.49
2023-02-24T11:34:22.738Z,1006.47
2023-02-24T11:35:22.752Z,1006.51
2023-02-24T11:36:22.788Z,1006.44
2023-02-24T11:37:22.818Z,1006.42
2023-02-24T11:38:22.755Z,1006.40
2023-02-24T11:39:22.787Z,1006.36
2023-02-24T11:40:23.686Z,1006.34
2023-02-24T11:41:24.494Z,1006.32
2023-02-24T11:42:22.621Z,1006.31
2023-02-24T11:43:22.631Z,1006.30
2023-02-24T11:44:22.647Z,1006.30
2023-02-24T11:45:22.584Z,1006.28
2023-02-24T11:46:22.615Z,1006.21
2023-02-24T11:47:22.570Z,1006.30
2023-02-24T11:48:22.577Z,1006.27
2023-02-24T11:49:22.587Z,1006.22
2023-02-24T11:50:23.046Z,1006.26
2023-02-24T11:51:22.835Z,1006.19
2023-02-24T11:52:22.656Z,1006.23
2023-02-24T11:53:22.544Z,1006.18
2023-02-24T11:54:22.483Z,1006.17
2023-02-24T11:55:22.466Z,1006.12
2023-02-24T11:56:22.466Z,1006.13
2023-02-24T11:57:22.834Z,1006.16
2023-02-24T11:58:22.426Z,1006.11
2023-02-24T11:59:22.472Z,1006.12
2023-02-24T12:00:22.396Z,1006.08
2023-02-24T12:01:22.683Z,1006.04
2023-02-24T12:02:22.481Z,1005.97
2023-02-24T12:03:22.684Z,1006.00
2023-02-24T12:04:22.337Z,1006.01
2023-02-24T12:05:22.408Z,1006.05